Bethesda, MD (20827)

2:19 AM EDT on October 23, 2014 (GMT -0400)
Burning Tree Estates | Change Station
CLOSE
Current Station
Personal Weather Station
Location: Bethesda, MD
Elevation: 245 ft
Nearby Weather Stations

Elev 245 ft 39.01 °N, 77.16 °W | Updated 8 seconds ago

Overcast
Overcast
50.7 °F
Feels Like 50.7 °F
N
2.0
Wind Variable Wind from West
Gusts 6.0 mph

Today
High -- | Low -- °F
--% Chance of Precip.
Yesterday
High -- | Low -- °F
Precip. -- in
7:26 AM 6:18 PM
Waning Crescent, 0% visible
Pressure 29.93 in
Visibility 10.0 miles
Clouds Overcast 3400 ft
Dew Point 43 °F
Humidity 74%
Rainfall 0.00 in
Snow Depth Not available.
UV 0 out of 12
Pollen .50 out of 12
Air Quality Not available.
Flu Activity Sporadic
METAR KGAI 230615Z 31012G17KT 10SM OVC034 09/05 A2993 RMK AO1

More Conditions Fewer Conditions

Pressure 29.93 in
Visibility 10.0 miles
Clouds Overcast 3400 ft
Dew Point 43 °F
Humidity 74%
Rainfall 0.00 in
Snow Depth Not available.
UV 0 out of 12
Pollen .50 out of 12
Air Quality Not available.
Flu Activity Sporadic
METAR KGAI 230615Z 31012G17KT 10SM OVC034 09/05 A2993 RMK AO1

More Conditions Fewer Conditions

10-Day Weather Forecast

Almanac

Astronomy

Oct. 23, 2014 Rise Set
Actual Time 7:26 AM EDT 6:18 PM EDT
Civil Twilight 6:59 AM EDT 6:46 PM EDT
Nautical Twilight 6:27 AM EDT 7:17 PM EDT
Astronomical Twilight 5:56 AM EDT 7:48 PM EDT
Moon 7:04 AM EDT 6:19 PM EDT
Length of Visible Light 11h 47m
Length of Day
10h 52m
Tomorrow will be 2m 22s shorter.
Waning Crescent, 0% of the Moon is Illuminated
Today
Waning Crescent
Oct 23
New
Oct 30
First Quarter
Nov 6
Full
Nov 14
Last Quarter

Today's Extremes

State Highs State Lows

Community

WunderPhotos

Upload Photos

1,764,194 photos uploaded!

Nearby

Snow Depth

Station Depth Elevation
No new snow has been reported.

Earthquake Activity

City Distance Mag. Time & Date
No recent earthquake activity has been reported nearby.
Minimum magnitude displayed is 2.5.

Coastal Water Temperatures

Place Temperature
Washington, DC 62.1 °F
Baltimore, MD 64.9 °F
Solomons Island, MD 64.0 °F

Nearby Weather Stations